Time;durP1;ratioP1;P1;durP2;ratioP2;P2;SDS_P1;SDS_P2;PMS_P1;PMS_P2;Temp;Humidity;BMP_temperature;BMP_pressure;BME280_temperature;BME280_humidity;BME280_pressure;Samples;Min_cycle;Max_cycle;Signal;HPM_P1;HPM_P2
2021/01/06 00:01:56;;;;;;;21.95;13.25;;;2.50;99.90;;;;;;4950900;29;20254;-77
2021/01/06 00:04:23;;;;;;;23.48;14.32;;;2.50;99.90;;;;;;4944490;29;20207;-79
2021/01/06 00:06:50;;;;;;;23.08;14.20;;;2.60;99.90;;;;;;4948231;29;20238;-80
2021/01/06 00:09:16;;;;;;;20.55;13.00;;;2.60;99.90;;;;;;4947230;29;20237;-79
2021/01/06 00:11:43;;;;;;;24.05;14.82;;;2.60;99.90;;;;;;4945195;29;20716;-79
2021/01/06 00:14:14;;;;;;;19.65;13.18;;;2.60;99.90;;;;;;4941942;29;20301;-78
2021/01/06 00:16:40;;;;;;;21.77;14.45;;;2.60;99.90;;;;;;4942179;29;20219;-79
2021/01/06 00:19:07;;;;;;;24.98;15.35;;;2.50;99.90;;;;;;4941924;29;20314;-79
2021/01/06 00:21:38;;;;;;;20.75;13.18;;;2.50;99.90;;;;;;4940658;29;20250;-79
2021/01/06 00:24:05;;;;;;;23.38;13.50;;;2.50;99.90;;;;;;4941218;29;20253;-80
2021/01/06 00:26:42;;;;;;;23.27;14.70;;;2.50;99.90;;;;;;4946489;29;20215;-77
2021/01/06 00:29:10;;;;;;;21.50;13.65;;;2.50;99.90;;;;;;4942257;29;20692;-80
2021/01/06 00:31:37;;;;;;;21.08;14.35;;;2.40;99.90;;;;;;4950952;29;20218;-77
2021/01/06 00:34:04;;;;;;;27.40;15.98;;;2.40;99.90;;;;;;4947891;29;20643;-79
2021/01/06 00:36:49;;;;;;;24.70;14.77;;;2.40;99.90;;;;;;4944030;29;20215;-77
2021/01/06 00:39:19;;;;;;;22.63;14.75;;;2.50;99.90;;;;;;4943578;29;20230;-80
2021/01/06 00:41:47;;;;;;;24.17;15.93;;;2.50;99.90;;;;;;4945605;29;20217;-78
2021/01/06 00:44:13;;;;;;;23.27;14.48;;;2.50;99.90;;;;;;4947660;29;20217;-80
2021/01/06 00:46:39;;;;;;;24.85;15.55;;;2.40;99.90;;;;;;4951122;29;20206;-78
2021/01/06 00:49:06;;;;;;;23.70;14.65;;;2.40;99.90;;;;;;4951452;29;20258;-80
2021/01/06 00:51:33;;;;;;;23.95;15.00;;;2.40;99.90;;;;;;4949223;29;20225;-78
2021/01/06 00:54:36;;;;;;;24.00;14.63;;;2.50;99.90;;;;;;4953071;29;20206;-77
2021/01/06 00:57:12;;;;;;;25.92;16.35;;;2.40;99.90;;;;;;4949239;29;20207;-77
2021/01/06 00:59:39;;;;;;;20.02;13.27;;;2.40;99.90;;;;;;4943550;29;20245;-79
2021/01/06 01:02:06;;;;;;;26.00;15.23;;;2.30;99.90;;;;;;4953641;29;20275;-80
2021/01/06 01:07:17;;;;;;;26.52;16.23;;;2.30;99.90;;;;;;4943416;29;20211;-79
2021/01/06 01:09:44;;;;;;;20.33;13.82;;;2.30;99.90;;;;;;4940868;29;20233;-79
2021/01/06 01:12:13;;;;;;;22.65;15.45;;;2.40;99.90;;;;;;4942192;29;20226;-78
2021/01/06 01:14:39;;;;;;;25.88;15.57;;;2.30;99.90;;;;;;4946824;29;20274;-79
2021/01/06 01:17:07;;;;;;;23.67;14.00;;;2.30;99.90;;;;;;4951028;29;20210;-80
2021/01/06 01:19:33;;;;;;;24.10;14.80;;;2.30;99.90;;;;;;4945794;29;20223;-80
2021/01/06 01:22:00;;;;;;;24.60;15.38;;;2.30;99.90;;;;;;4945043;29;20241;-79
2021/01/06 01:24:26;;;;;;;26.92;15.32;;;2.40;99.90;;;;;;4946485;29;20214;-79
2021/01/06 01:26:56;;;;;;;23.00;14.60;;;2.30;99.90;;;;;;4950657;29;20229;-79
2021/01/06 01:29:23;;;;;;;26.67;15.25;;;2.30;99.90;;;;;;4953418;29;20244;-77
2021/01/06 01:31:50;;;;;;;25.20;15.27;;;2.20;99.90;;;;;;4950446;29;20214;-79
2021/01/06 01:34:16;;;;;;;27.65;15.70;;;2.30;99.90;;;;;;4945375;29;20700;-80
2021/01/06 01:36:47;;;;;;;30.63;16.10;;;2.20;99.90;;;;;;4944996;29;20455;-80
2021/01/06 01:39:13;;;;;;;23.13;14.77;;;2.20;99.90;;;;;;4951407;29;20289;-80
2021/01/06 01:41:55;;;;;;;25.40;15.80;;;2.20;99.90;;;;;;4953262;29;20203;-78
2021/01/06 01:44:23;;;;;;;25.50;15.82;;;2.20;99.90;;;;;;4952385;29;20234;-77
2021/01/06 01:47:06;;;;;;;22.63;14.35;;;2.20;99.90;;;;;;4954770;29;20211;-79
2021/01/06 01:49:41;;;;;;;26.75;16.48;;;2.10;99.90;;;;;;4949063;29;20714;-79
2021/01/06 01:52:21;;;;;;;27.55;16.27;;;2.20;99.90;;;;;;4945094;29;20237;-79
2021/01/06 01:54:48;;;;;;;23.58;13.98;;;2.20;99.90;;;;;;4944934;29;20222;-80
2021/01/06 01:57:20;;;;;;;28.30;16.27;;;2.20;99.90;;;;;;4941899;29;20344;-80
2021/01/06 01:59:52;;;;;;;39.63;16.60;;;2.10;99.90;;;;;;4948408;29;20273;-81
2021/01/06 02:02:30;;;;;;;23.75;14.88;;;2.20;99.90;;;;;;4942919;29;20210;-81
2021/01/06 02:05:08;;;;;;;23.98;14.70;;;2.10;99.90;;;;;;4939653;29;20293;-78
2021/01/06 02:07:39;;;;;;;29.45;15.27;;;2.20;99.90;;;;;;4937787;29;20219;-79
2021/01/06 02:10:17;;;;;;;26.13;15.00;;;2.20;99.90;;;;;;4928421;29;20254;-79
2021/01/06 02:12:47;;;;;;;20.77;13.90;;;2.20;99.90;;;;;;4920528;29;20215;-79
2021/01/06 02:15:22;;;;;;;26.90;16.20;;;2.30;99.90;;;;;;4937768;29;20289;-79
2021/01/06 02:17:49;;;;;;;26.73;15.68;;;2.30;99.90;;;;;;4937136;29;20206;-80
2021/01/06 02:20:18;;;;;;;25.30;14.50;;;2.30;99.90;;;;;;4942581;29;20278;-79
2021/01/06 02:22:47;;;;;;;25.38;15.18;;;2.20;99.90;;;;;;4944919;29;20310;-79
2021/01/06 02:25:16;;;;;;;24.80;14.27;;;2.20;99.90;;;;;;4943850;29;20238;-81
2021/01/06 02:27:43;;;;;;;26.30;15.18;;;2.20;99.90;;;;;;4942544;29;20246;-77
2021/01/06 02:30:13;;;;;;;27.83;15.75;;;2.30;99.90;;;;;;4939762;29;20294;-79
2021/01/06 02:32:40;;;;;;;27.23;16.45;;;2.30;99.90;;;;;;4937353;29;20294;-79
2021/01/06 02:35:08;;;;;;;24.33;15.05;;;2.30;99.90;;;;;;4937453;29;20346;-80
2021/01/06 02:37:35;;;;;;;25.05;14.70;;;2.20;99.90;;;;;;4937942;29;20203;-78
2021/01/06 02:40:03;;;;;;;23.13;14.85;;;2.20;99.90;;;;;;4949844;29;20210;-79
2021/01/06 02:42:30;;;;;;;29.15;16.05;;;2.20;99.90;;;;;;4954761;29;20238;-78
2021/01/06 02:44:57;;;;;;;25.40;15.27;;;2.00;99.90;;;;;;4944298;29;20218;-77
2021/01/06 02:47:24;;;;;;;24.33;14.98;;;2.10;99.90;;;;;;4940644;29;20244;-78
2021/01/06 02:49:52;;;;;;;27.40;14.93;;;2.10;99.90;;;;;;4940630;29;20236;-78
2021/01/06 02:52:25;;;;;;;25.42;14.90;;;2.10;99.90;;;;;;4940775;29;20294;-77
2021/01/06 02:54:53;;;;;;;22.15;13.95;;;2.00;99.90;;;;;;4938729;29;20652;-76
2021/01/06 02:57:22;;;;;;;25.73;14.68;;;2.00;99.90;;;;;;4939564;29;20209;-79
2021/01/06 02:59:49;;;;;;;25.88;14.63;;;2.00;99.90;;;;;;4946016;29;20231;-79
2021/01/06 03:02:20;;;;;;;25.23;14.27;;;2.00;99.90;;;;;;4942482;29;20262;-79
2021/01/06 03:04:49;;;;;;;24.70;13.15;;;2.00;99.90;;;;;;4943767;29;20324;-80
2021/01/06 03:07:17;;;;;;;24.73;14.20;;;2.00;99.90;;;;;;4944727;29;20215;-79
2021/01/06 03:09:45;;;;;;;27.33;13.93;;;2.00;99.90;;;;;;4947237;29;20234;-80
2021/01/06 03:12:15;;;;;;;26.17;13.50;;;2.00;99.90;;;;;;4943434;29;20238;-78
2021/01/06 03:14:43;;;;;;;22.35;13.40;;;2.00;99.90;;;;;;4946476;29;20237;-79
2021/01/06 03:17:12;;;;;;;25.75;14.60;;;2.00;99.90;;;;;;4950455;29;20210;-80
2021/01/06 03:19:43;;;;;;;28.20;14.32;;;2.00;99.90;;;;;;4951821;29;20234;-78
2021/01/06 03:22:12;;;;;;;26.13;14.52;;;1.90;99.90;;;;;;4949819;29;20198;-80
2021/01/06 03:24:43;;;;;;;26.38;14.43;;;2.00;99.90;;;;;;4948635;29;20246;-80
2021/01/06 03:27:11;;;;;;;22.85;14.38;;;1.90;99.90;;;;;;4954290;29;20195;-80
2021/01/06 03:29:39;;;;;;;22.88;13.55;;;1.90;99.90;;;;;;4953593;29;20237;-80
2021/01/06 03:32:11;;;;;;;25.33;13.60;;;2.00;99.90;;;;;;4959817;29;20214;-79
2021/01/06 03:34:43;;;;;;;23.70;13.95;;;2.00;99.90;;;;;;4958870;29;20214;-79
2021/01/06 03:37:15;;;;;;;25.55;13.18;;;2.00;99.90;;;;;;4971918;23;20269;-78
2021/01/06 03:39:47;;;;;;;22.90;13.50;;;2.00;99.90;;;;;;4942262;29;20666;-78
2021/01/06 03:42:15;;;;;;;25.88;13.75;;;2.00;99.90;;;;;;4957710;29;20237;-77
2021/01/06 03:44:43;;;;;;;31.25;14.25;;;2.00;99.90;;;;;;4956233;29;20202;-75
2021/01/06 03:47:17;;;;;;;23.27;12.88;;;2.00;99.90;;;;;;4940849;29;20254;-77
2021/01/06 03:49:54;;;;;;;23.02;13.13;;;1.90;99.90;;;;;;4942834;29;20668;-78
2021/01/06 03:52:31;;;;;;;24.75;12.45;;;2.00;99.90;;;;;;4944179;29;20224;-78
2021/01/06 03:55:02;;;;;;;25.85;14.35;;;2.00;99.90;;;;;;4942733;29;20277;-77
2021/01/06 03:57:30;;;;;;;25.15;13.18;;;2.00;99.90;;;;;;4937679;29;20321;-76
2021/01/06 03:59:58;;;;;;;21.90;12.88;;;2.00;99.90;;;;;;4938347;29;20578;-76
2021/01/06 04:02:31;;;;;;;26.25;12.88;;;2.00;99.90;;;;;;4939218;29;20213;-77
2021/01/06 04:05:07;;;;;;;19.95;11.90;;;2.00;99.90;;;;;;4919730;29;20259;-77
2021/01/06 04:07:36;;;;;;;22.83;12.10;;;2.00;99.90;;;;;;4921049;29;20239;-77
2021/01/06 04:10:07;;;;;;;22.65;11.65;;;2.00;99.90;;;;;;4938307;29;20231;-77
2021/01/06 04:12:34;;;;;;;24.73;13.85;;;2.00;99.90;;;;;;4939562;29;20225;-76
2021/01/06 04:15:00;;;;;;;22.20;13.00;;;2.00;99.90;;;;;;4939765;29;20294;-78
2021/01/06 04:17:30;;;;;;;21.85;11.55;;;2.00;99.90;;;;;;4936943;29;20234;-78
2021/01/06 04:19:59;;;;;;;22.52;12.02;;;1.90;99.90;;;;;;4938454;29;20207;-77
2021/01/06 04:22:42;;;;;;;24.40;12.95;;;1.90;99.90;;;;;;4938586;29;20241;-76
2021/01/06 04:25:20;;;;;;;19.30;12.90;;;2.00;99.90;;;;;;4938940;29;20582;-77
2021/01/06 04:27:48;;;;;;;27.58;11.48;;;2.00;99.90;;;;;;4936662;29;20233;-78
2021/01/06 04:30:25;;;;;;;23.20;12.77;;;2.00;99.90;;;;;;4939003;29;20240;-77
2021/01/06 04:32:53;;;;;;;20.08;11.98;;;2.00;99.90;;;;;;4942447;29;20294;-77
2021/01/06 04:35:21;;;;;;;21.20;12.80;;;2.00;99.90;;;;;;4942193;29;20274;-75
2021/01/06 04:37:47;;;;;;;26.00;13.73;;;2.10;99.90;;;;;;4950594;29;20242;-77
2021/01/06 04:40:16;;;;;;;22.83;12.25;;;2.00;99.90;;;;;;4938298;29;20241;-76
2021/01/06 04:42:43;;;;;;;24.58;13.20;;;2.00;99.90;;;;;;4938926;29;20225;-77
2021/01/06 04:45:15;;;;;;;18.90;12.07;;;2.00;99.90;;;;;;4938210;29;20253;-77
2021/01/06 04:48:15;;;;;;;18.42;11.70;;;2.00;99.90;;;;;;4938779;29;20229;-77
2021/01/06 04:51:09;;;;;;;21.40;12.02;;;2.00;99.90;;;;;;4939010;29;20226;-77
2021/01/06 04:53:57;;;;;;;21.42;12.60;;;2.00;99.90;;;;;;4939176;29;20211;-77
2021/01/06 04:56:38;;;;;;;18.65;11.88;;;2.00;99.90;;;;;;4938012;29;20742;-77
2021/01/06 04:59:16;;;;;;;16.38;10.02;;;2.00;99.90;;;;;;4938128;29;20227;-78
2021/01/06 05:02:10;;;;;;;20.27;12.07;;;2.00;99.90;;;;;;4938821;29;20270;-77
2021/01/06 05:05:01;;;;;;;19.35;11.43;;;2.00;99.90;;;;;;4939361;29;20223;-77
2021/01/06 05:07:45;;;;;;;20.98;12.10;;;1.90;99.90;;;;;;4936315;29;20230;-78
2021/01/06 05:10:25;;;;;;;18.02;11.48;;;1.90;99.90;;;;;;4936399;29;20207;-77
2021/01/06 05:12:55;;;;;;;19.85;10.48;;;1.90;99.90;;;;;;4941737;29;20179;-78
2021/01/06 05:15:34;;;;;;;17.35;11.23;;;1.90;99.90;;;;;;4933666;29;20258;-77
2021/01/06 05:18:01;;;;;;;19.27;11.70;;;1.90;99.90;;;;;;4921529;29;20231;-78
2021/01/06 05:20:28;;;;;;;21.05;12.18;;;2.00;99.90;;;;;;4960251;29;20222;-77
2021/01/06 05:22:55;;;;;;;20.60;13.13;;;2.00;99.90;;;;;;4960704;29;20206;-78
2021/01/06 05:25:21;;;;;;;18.77;10.77;;;2.00;99.90;;;;;;4961407;29;20205;-77
2021/01/06 05:27:48;;;;;;;19.95;11.63;;;2.00;99.90;;;;;;4947903;29;20226;-76
2021/01/06 05:30:20;;;;;;;19.55;10.60;;;2.00;99.90;;;;;;4939590;29;20256;-77
2021/01/06 05:32:47;;;;;;;18.73;11.70;;;1.90;99.90;;;;;;4936739;29;20207;-77
2021/01/06 05:35:17;;;;;;;20.30;11.82;;;1.90;99.90;;;;;;4935844;29;20213;-77
2021/01/06 05:37:45;;;;;;;19.17;11.80;;;1.90;99.90;;;;;;4933970;29;20726;-75
2021/01/06 05:40:13;;;;;;;16.40;10.93;;;1.90;99.90;;;;;;4936463;29;20213;-77
2021/01/06 05:42:50;;;;;;;21.15;11.02;;;2.00;99.90;;;;;;4936074;29;20226;-77
2021/01/06 05:45:18;;;;;;;19.80;12.55;;;2.00;99.90;;;;;;4936119;29;20220;-77
2021/01/06 05:47:50;;;;;;;21.35;11.38;;;2.00;99.90;;;;;;4935179;29;20234;-76
2021/01/06 05:50:20;;;;;;;18.33;10.90;;;1.90;99.90;;;;;;4935458;29;20543;-77
2021/01/06 05:53:01;;;;;;;19.65;11.35;;;2.00;99.90;;;;;;4935800;29;20586;-76
2021/01/06 05:55:31;;;;;;;18.95;11.57;;;2.00;99.90;;;;;;4935717;29;20585;-77
2021/01/06 05:58:08;;;;;;;19.80;12.02;;;1.90;99.90;;;;;;4935722;29;20231;-77
2021/01/06 06:00:52;;;;;;;15.75;10.27;;;1.90;99.90;;;;;;4937922;29;20219;-76
2021/01/06 06:04:00;;;;;;;16.58;10.93;;;1.90;99.90;;;;;;4936409;29;20677;-77
2021/01/06 06:06:51;;;;;;;15.73;9.73;;;1.90;99.90;;;;;;4936669;29;20298;-78
2021/01/06 06:09:33;;;;;;;18.50;11.15;;;1.90;99.90;;;;;;4936782;29;20231;-76
2021/01/06 06:12:27;;;;;;;15.27;10.40;;;1.90;99.90;;;;;;4917190;29;20215;-77
2021/01/06 06:15:22;;;;;;;19.90;11.00;;;1.90;99.90;;;;;;4935620;29;20211;-78
2021/01/06 06:18:27;;;;;;;17.00;9.77;;;1.90;99.90;;;;;;4935227;29;20321;-76
2021/01/06 06:21:01;;;;;;;16.35;10.20;;;2.00;99.90;;;;;;4904093;29;20237;-76
2021/01/06 06:23:59;;;;;;;15.95;10.10;;;1.90;99.90;;;;;;4935243;29;20681;-79
2021/01/06 06:26:41;;;;;;;18.77;10.98;;;1.90;99.90;;;;;;4935149;29;20277;-77
2021/01/06 06:29:18;;;;;;;14.38;9.60;;;2.00;99.90;;;;;;4936042;29;20274;-77
2021/01/06 06:31:48;;;;;;;18.85;10.75;;;1.90;99.90;;;;;;4935536;29;20305;-76
2021/01/06 06:34:15;;;;;;;17.17;10.32;;;1.90;99.90;;;;;;4934942;29;20261;-76
2021/01/06 06:36:45;;;;;;;18.42;11.05;;;1.90;99.90;;;;;;4934278;29;20233;-78
2021/01/06 06:39:25;;;;;;;17.48;10.15;;;1.90;99.90;;;;;;4935298;29;20203;-77
2021/01/06 06:41:55;;;;;;;14.38;10.43;;;1.90;99.90;;;;;;4934532;29;20351;-76
2021/01/06 06:44:28;;;;;;;20.45;10.35;;;1.80;99.90;;;;;;4934727;29;20217;-77
2021/01/06 06:47:02;;;;;;;14.07;9.13;;;1.80;99.90;;;;;;4936296;29;20226;-77
2021/01/06 06:49:40;;;;;;;17.00;10.35;;;1.80;99.90;;;;;;4947104;29;20233;-76
2021/01/06 06:52:17;;;;;;;14.40;8.77;;;1.80;99.90;;;;;;4936632;29;20195;-77
2021/01/06 06:54:53;;;;;;;16.70;10.48;;;1.80;99.90;;;;;;4935248;29;20234;-75
2021/01/06 06:57:26;;;;;;;16.48;9.75;;;1.70;99.90;;;;;;4934215;29;20240;-77
2021/01/06 07:00:01;;;;;;;16.50;10.15;;;1.60;99.90;;;;;;4941906;29;20203;-76
2021/01/06 07:02:28;;;;;;;18.30;10.60;;;1.70;99.90;;;;;;4935986;29;20191;-77
2021/01/06 07:04:59;;;;;;;14.95;10.75;;;1.70;99.90;;;;;;4935825;29;20726;-77
2021/01/06 07:07:39;;;;;;;18.88;11.25;;;1.70;99.90;;;;;;4934580;29;20237;-77
2021/01/06 07:10:15;;;;;;;17.92;10.50;;;1.70;99.90;;;;;;4937704;29;20231;-77
2021/01/06 07:12:43;;;;;;;18.95;10.38;;;1.70;99.90;;;;;;4944199;29;20726;-77
2021/01/06 07:15:22;;;;;;;15.95;9.40;;;1.70;99.90;;;;;;4939339;29;20214;-77
2021/01/06 07:17:48;;;;;;;19.73;11.70;;;1.80;99.90;;;;;;4942399;29;20230;-78
2021/01/06 07:20:30;;;;;;;17.45;10.23;;;1.80;99.90;;;;;;4944564;29;20217;-78
2021/01/06 07:23:02;;;;;;;17.55;10.77;;;1.70;99.90;;;;;;4941781;29;20210;-78
2021/01/06 07:25:31;;;;;;;19.50;10.82;;;1.80;99.90;;;;;;4943820;29;20229;-78
2021/01/06 07:28:03;;;;;;;14.50;10.07;;;1.80;99.90;;;;;;4944515;29;20370;-78
2021/01/06 07:30:35;;;;;;;16.00;9.38;;;1.80;99.90;;;;;;4943348;29;20273;-77
2021/01/06 07:33:12;;;;;;;17.27;11.55;;;1.80;99.90;;;;;;4942044;29;20297;-79
2021/01/06 07:35:41;;;;;;;15.40;9.50;;;1.90;99.90;;;;;;4943736;29;20206;-78
2021/01/06 07:38:08;;;;;;;18.73;12.30;;;1.90;99.90;;;;;;4947832;29;20246;-78
2021/01/06 07:40:37;;;;;;;17.20;10.75;;;1.80;99.90;;;;;;4939861;29;20217;-79
2021/01/06 07:43:20;;;;;;;19.05;9.57;;;1.90;99.90;;;;;;4946975;29;20231;-79
2021/01/06 07:46:03;;;;;;;16.13;10.40;;;1.80;99.90;;;;;;4951673;29;20210;-78
2021/01/06 07:49:00;;;;;;;13.68;9.57;;;1.90;99.90;;;;;;4951142;29;20302;-79
2021/01/06 07:51:51;;;;;;;18.02;11.15;;;1.90;99.90;;;;;;4946100;29;20671;-78
2021/01/06 07:54:28;;;;;;;17.48;11.00;;;1.80;99.90;;;;;;4938378;29;20278;-78
2021/01/06 07:57:04;;;;;;;18.88;11.18;;;1.90;99.90;;;;;;4935591;29;20241;-77
2021/01/06 07:59:44;;;;;;;21.25;11.57;;;1.80;99.90;;;;;;4935276;29;20203;-77
2021/01/06 08:02:13;;;;;;;18.75;11.02;;;1.80;99.90;;;;;;4938682;29;20187;-78
2021/01/06 08:04:51;;;;;;;16.48;10.60;;;1.80;99.90;;;;;;4939341;29;20214;-78
2021/01/06 08:07:21;;;;;;;17.08;10.63;;;1.70;99.90;;;;;;4939427;29;20280;-80
2021/01/06 08:09:49;;;;;;;18.25;11.32;;;1.80;99.90;;;;;;4940538;29;20234;-78
2021/01/06 08:12:23;;;;;;;18.58;11.18;;;1.90;99.90;;;;;;4943909;29;20236;-78
2021/01/06 08:15:05;;;;;;;16.17;9.85;;;2.00;99.90;;;;;;4938740;29;20233;-77
2021/01/06 08:17:42;;;;;;;16.45;10.00;;;2.00;99.90;;;;;;4938857;29;20719;-78
2021/01/06 08:20:11;;;;;;;18.15;10.15;;;2.00;99.90;;;;;;4919388;29;20770;-79
2021/01/06 08:22:40;;;;;;;14.43;9.25;;;2.00;99.90;;;;;;4919594;29;20294;-79
2021/01/06 08:25:18;;;;;;;15.57;9.50;;;2.10;99.90;;;;;;4919816;29;20218;-79
2021/01/06 08:27:49;;;;;;;17.58;10.25;;;2.20;99.90;;;;;;4935541;29;20255;-78
2021/01/06 08:30:20;;;;;;;16.70;9.43;;;2.20;99.90;;;;;;4937651;29;20618;-79
2021/01/06 08:32:48;;;;;;;16.73;9.88;;;2.20;99.90;;;;;;4938531;29;20234;-77
2021/01/06 08:35:20;;;;;;;13.60;8.95;;;2.30;99.90;;;;;;4938051;29;20242;-79
2021/01/06 08:37:50;;;;;;;16.38;10.23;;;2.30;99.90;;;;;;4937341;29;20250;-78
2021/01/06 08:40:40;;;;;;;15.57;10.25;;;2.20;99.90;;;;;;4937378;29;20347;-79
2021/01/06 08:43:10;;;;;;;17.33;10.35;;;2.10;99.90;;;;;;4922762;29;20214;-78
2021/01/06 08:45:41;;;;;;;18.92;10.20;;;2.00;99.90;;;;;;4938156;29;20214;-78
2021/01/06 08:48:31;;;;;;;16.80;10.85;;;2.10;99.90;;;;;;4936802;29;20241;-79
2021/01/06 08:51:05;;;;;;;21.25;12.10;;;2.20;99.90;;;;;;4932818;29;20231;-77
2021/01/06 08:53:34;;;;;;;17.98;10.50;;;2.00;99.90;;;;;;4938567;29;20217;-77
2021/01/06 08:56:02;;;;;;;15.98;9.70;;;2.00;99.90;;;;;;4925461;29;20210;-77
2021/01/06 08:58:41;;;;;;;16.55;10.88;;;2.00;99.90;;;;;;4918815;29;20322;-76
2021/01/06 09:01:19;;;;;;;21.73;11.23;;;2.00;99.90;;;;;;4933437;29;20214;-77
2021/01/06 09:04:02;;;;;;;18.40;10.82;;;2.00;99.90;;;;;;4919601;29;20226;-78
2021/01/06 09:06:30;;;;;;;20.13;11.48;;;2.00;99.90;;;;;;4935857;29;20211;-77
2021/01/06 09:09:12;;;;;;;17.40;11.40;;;2.10;99.90;;;;;;4937310;29;20220;-78
2021/01/06 09:11:47;;;;;;;18.50;11.20;;;2.20;99.90;;;;;;4937080;29;20569;-76
2021/01/06 09:14:27;;;;;;;16.25;11.38;;;2.30;99.90;;;;;;4937074;29;20585;-77
2021/01/06 09:17:00;;;;;;;19.10;11.63;;;2.30;99.90;;;;;;4917242;29;20238;-77
2021/01/06 09:19:32;;;;;;;19.90;11.27;;;2.30;99.90;;;;;;4932914;29;20200;-78
2021/01/06 09:22:00;;;;;;;19.63;11.48;;;2.40;99.90;;;;;;4936976;29;20258;-78
2021/01/06 09:24:31;;;;;;;21.65;12.18;;;2.50;99.90;;;;;;4936008;29;20298;-77
2021/01/06 09:27:03;;;;;;;18.23;10.98;;;2.60;99.90;;;;;;4916771;29;20286;-78
2021/01/06 09:29:33;;;;;;;17.23;10.05;;;2.60;99.90;;;;;;4917045;29;20225;-77
2021/01/06 09:32:02;;;;;;;16.13;10.30;;;2.60;99.90;;;;;;4917378;29;20207;-77
2021/01/06 09:34:34;;;;;;;14.85;9.50;;;2.60;99.40;;;;;;4929827;29;20210;-78
2021/01/06 09:37:01;;;;;;;18.13;10.50;;;2.60;99.00;;;;;;4936753;29;20274;-78
2021/01/06 09:39:30;;;;;;;16.38;10.05;;;2.60;98.40;;;;;;4936855;29;20887;-77
2021/01/06 09:41:59;;;;;;;19.27;11.52;;;2.60;98.10;;;;;;4937855;29;20271;-78
2021/01/06 09:44:26;;;;;;;16.83;11.00;;;2.60;98.00;;;;;;4936886;29;20286;-77
2021/01/06 09:46:57;;;;;;;20.65;12.55;;;2.60;98.40;;;;;;4936099;29;20266;-78
2021/01/06 09:49:30;;;;;;;19.00;11.55;;;2.60;98.30;;;;;;4936429;29;20293;-76
2021/01/06 09:52:02;;;;;;;19.70;11.85;;;2.60;98.10;;;;;;4937507;29;20198;-76
2021/01/06 09:54:29;;;;;;;19.00;11.63;;;2.70;98.20;;;;;;4938911;29;20297;-76
2021/01/06 09:56:56;;;;;;;20.08;12.48;;;2.70;97.90;;;;;;4937992;29;20234;-77
2021/01/06 09:59:26;;;;;;;21.92;13.30;;;2.80;97.80;;;;;;4946372;29;20230;-77
2021/01/06 10:02:02;;;;;;;20.52;11.90;;;2.80;97.50;;;;;;4949065;29;20940;-77
2021/01/06 10:04:34;;;;;;;19.35;11.88;;;2.80;97.10;;;;;;4949867;29;20201;-77
2021/01/06 10:07:28;;;;;;;22.08;12.68;;;2.80;97.00;;;;;;4950065;29;20237;-76
2021/01/06 10:10:00;;;;;;;20.65;13.07;;;2.90;96.80;;;;;;4947849;29;20235;-76
2021/01/06 10:12:41;;;;;;;19.98;12.20;;;3.00;96.60;;;;;;4953230;29;20199;-78
2021/01/06 10:15:31;;;;;;;17.15;11.35;;;2.90;96.10;;;;;;4953398;29;20198;-77
2021/01/06 10:18:04;;;;;;;21.88;11.40;;;2.80;96.40;;;;;;4950091;29;20244;-75
2021/01/06 10:20:36;;;;;;;17.75;10.50;;;2.80;96.10;;;;;;4947001;29;20192;-76
2021/01/06 10:23:16;;;;;;;17.42;11.75;;;2.90;96.10;;;;;;4941554;29;20648;-77
2021/01/06 10:25:47;;;;;;;16.02;10.70;;;3.00;96.20;;;;;;4941041;29;20211;-76
2021/01/06 10:28:34;;;;;;;17.45;10.45;;;3.00;95.80;;;;;;4939685;29;20227;-75
2021/01/06 10:31:08;;;;;;;16.73;10.60;;;2.90;95.60;;;;;;4946099;29;20565;-77
2021/01/06 10:33:36;;;;;;;16.98;10.75;;;3.00;95.90;;;;;;4937294;29;20313;-76
2021/01/06 10:36:31;;;;;;;18.63;10.85;;;3.00;95.50;;;;;;4939664;29;20253;-75
2021/01/06 10:39:00;;;;;;;16.05;10.23;;;2.90;94.60;;;;;;4939273;29;20234;-77
2021/01/06 10:41:30;;;;;;;14.15;9.63;;;2.80;94.80;;;;;;4938016;29;20293;-76
2021/01/06 10:43:57;;;;;;;15.73;11.07;;;2.90;95.00;;;;;;4934960;29;20215;-77
2021/01/06 10:46:42;;;;;;;14.45;9.77;;;2.90;95.00;;;;;;4934298;29;20210;-77
2021/01/06 10:49:46;;;;;;;20.60;11.02;;;2.80;94.80;;;;;;4934422;29;20233;-77
2021/01/06 10:52:55;;;;;;;15.80;9.93;;;2.90;95.30;;;;;;4936727;29;20218;-77
2021/01/06 10:55:37;;;;;;;19.13;10.93;;;3.00;95.40;;;;;;4917206;29;20249;-76
2021/01/06 10:58:12;;;;;;;18.15;11.05;;;3.00;94.90;;;;;;4923938;29;20226;-77
2021/01/06 11:00:52;;;;;;;16.42;10.52;;;2.90;94.90;;;;;;4935654;29;20298;-76
2021/01/06 11:03:43;;;;;;;17.20;9.50;;;3.00;95.20;;;;;;4926984;29;20574;-77
2021/01/06 11:06:25;;;;;;;14.82;9.55;;;2.90;94.90;;;;;;4945152;29;20292;-77
2021/01/06 11:09:24;;;;;;;13.25;9.00;;;2.90;95.40;;;;;;4955900;29;20252;-77
2021/01/06 11:12:26;;;;;;;16.83;10.60;;;2.80;95.80;;;;;;4927109;28;20207;-76
2021/01/06 11:15:23;;;;;;;13.32;9.90;;;2.70;95.50;;;;;;4934116;29;20240;-78
2021/01/06 11:18:18;;;;;;;17.75;11.15;;;2.80;96.10;;;;;;4933730;29;20238;-77
2021/01/06 11:20:47;;;;;;;15.68;10.55;;;2.80;96.10;;;;;;4935064;29;20293;-76
2021/01/06 11:23:43;;;;;;;14.48;10.13;;;2.90;96.10;;;;;;4939293;29;20213;-79
2021/01/06 11:26:51;;;;;;;14.88;10.10;;;2.90;96.10;;;;;;4922621;29;20671;-78
2021/01/06 11:29:49;;;;;;;15.40;9.43;;;3.00;96.20;;;;;;4936795;29;20262;-76
2021/01/06 11:32:35;;;;;;;11.88;8.65;;;2.90;95.90;;;;;;4932251;29;20218;-77
2021/01/06 11:35:21;;;;;;;15.43;9.25;;;2.90;95.60;;;;;;4939605;29;20210;-78
2021/01/06 11:37:48;;;;;;;17.10;9.88;;;2.90;96.10;;;;;;4921496;29;20247;-78
2021/01/06 11:40:55;;;;;;;15.38;9.70;;;2.90;96.10;;;;;;4934992;29;20210;-78
2021/01/06 11:43:47;;;;;;;17.20;11.15;;;2.80;96.10;;;;;;4942185;29;20210;-77
2021/01/06 11:46:43;;;;;;;14.45;9.77;;;2.80;96.40;;;;;;4923219;29;20278;-78
2021/01/06 11:49:47;;;;;;;15.55;9.18;;;3.00;96.20;;;;;;4937935;29;20286;-77
2021/01/06 11:52:35;;;;;;;18.30;9.85;;;3.00;96.20;;;;;;4937708;29;20201;-77
2021/01/06 11:55:29;;;;;;;13.35;8.82;;;3.10;96.20;;;;;;4937760;29;20301;-78
2021/01/06 11:58:12;;;;;;;14.48;9.93;;;3.10;96.00;;;;;;4936908;29;20278;-76
2021/01/06 12:01:11;;;;;;;12.45;8.82;;;3.10;95.40;;;;;;4941192;29;20210;-76
2021/01/06 12:03:45;;;;;;;16.48;9.98;;;3.20;95.40;;;;;;4939214;29;20214;-76
2021/01/06 12:06:24;;;;;;;13.00;8.90;;;3.30;94.50;;;;;;4937230;29;20206;-76
2021/01/06 12:09:07;;;;;;;12.73;8.82;;;3.30;94.50;;;;;;4937461;29;20254;-75
2021/01/06 12:11:41;;;;;;;14.65;9.25;;;3.30;94.00;;;;;;4938484;29;20198;-76
2021/01/06 12:14:22;;;;;;;13.30;8.30;;;3.30;93.60;;;;;;4947617;29;20241;-76
2021/01/06 12:16:54;;;;;;;14.32;9.55;;;3.10;93.20;;;;;;4950309;29;20257;-74
2021/01/06 12:19:34;;;;;;;13.13;9.57;;;3.30;93.00;;;;;;4941696;29;20286;-75
2021/01/06 12:22:17;;;;;;;14.15;9.50;;;3.40;92.80;;;;;;4938954;29;20217;-76
2021/01/06 12:24:51;;;;;;;16.55;10.73;;;3.40;92.10;;;;;;4939295;29;20274;-75
2021/01/06 12:27:56;;;;;;;13.80;8.60;;;3.40;91.70;;;;;;4938918;29;20569;-76
2021/01/06 12:30:47;;;;;;;12.27;8.57;;;3.40;91.70;;;;;;4940950;29;20248;-76
2021/01/06 12:33:34;;;;;;;11.30;8.15;;;3.50;91.50;;;;;;4940436;29;20195;-76
2021/01/06 12:36:23;;;;;;;11.10;7.93;;;3.50;91.20;;;;;;4939562;29;20639;-77
2021/01/06 12:38:50;;;;;;;13.02;8.95;;;3.50;91.00;;;;;;4942739;29;20282;-77
2021/01/06 12:41:20;;;;;;;12.68;9.55;;;3.50;91.30;;;;;;4945883;29;20269;-74
2021/01/06 12:43:51;;;;;;;11.75;8.07;;;3.60;91.10;;;;;;4945075;29;20277;-77
2021/01/06 12:46:32;;;;;;;10.82;7.70;;;3.60;90.20;;;;;;4926033;29;20224;-78
2021/01/06 12:49:14;;;;;;;11.57;8.15;;;3.50;90.50;;;;;;4937302;29;20218;-76
2021/01/06 12:51:43;;;;;;;12.15;8.07;;;3.50;90.20;;;;;;4946776;29;20203;-75
2021/01/06 12:54:18;;;;;;;10.52;7.30;;;3.50;90.00;;;;;;4944733;29;20242;-76
2021/01/06 12:56:49;;;;;;;10.48;7.80;;;3.60;89.40;;;;;;4948137;29;20709;-77
2021/01/06 12:59:18;;;;;;;11.85;7.60;;;3.60;88.60;;;;;;4944375;29;20234;-76
2021/01/06 13:02:06;;;;;;;11.38;7.65;;;3.40;88.30;;;;;;4941314;29;20278;-77
2021/01/06 13:04:34;;;;;;;12.80;8.88;;;3.30;90.30;;;;;;4937998;29;20226;-76
2021/01/06 13:07:27;;;;;;;9.73;8.15;;;3.30;90.40;;;;;;4938562;29;20726;-77
2021/01/06 13:09:59;;;;;;;12.27;8.13;;;3.40;90.30;;;;;;4942669;29;20226;-76
2021/01/06 13:12:46;;;;;;;10.80;7.80;;;3.20;90.60;;;;;;4946018;29;20281;-77
2021/01/06 13:15:22;;;;;;;11.85;7.88;;;3.20;90.90;;;;;;4947306;29;20229;-76
2021/01/06 13:17:59;;;;;;;12.07;8.05;;;3.20;90.90;;;;;;4947415;29;20245;-76
2021/01/06 13:20:45;;;;;;;13.00;9.00;;;3.30;91.30;;;;;;4945574;29;20200;-77
2021/01/06 13:23:38;;;;;;;15.57;10.27;;;3.30;91.60;;;;;;4955881;29;20210;-77